Time;durP1;ratioP1;P1;durP2;ratioP2;P2;SDS_P1;SDS_P2;PMS_P1;PMS_P2;Temp;Humidity;BMP_temperature;BMP_pressure;BME280_temperature;BME280_humidity;BME280_pressure;Samples;Min_cycle;Max_cycle;Signal;HPM_P1;HPM_P2
2022/07/04 00:02:23;;;;;;;;;;;;;;;22.24;nan;98033.03;5097642;27;19920;-59
2022/07/04 00:04:51;;;;;;;;;;;;;;;22.25;nan;98026.31;5108743;27;19931;-62
2022/07/04 00:07:20;;;;;;;;;;;;;;;22.02;nan;98032.06;5111523;27;19927;-62
2022/07/04 00:09:48;;;;;;;;;;;;;;;21.95;nan;98035.56;5103015;27;19920;-61
2022/07/04 00:12:16;;;;;;;;;;;;;;;21.94;nan;98042.28;5105755;27;19939;-62
2022/07/04 00:14:45;;;;;;;;;;;;;;;21.93;nan;98046.22;5103700;28;19927;-62
2022/07/04 00:17:19;;;;;;;;;;;;;;;21.87;nan;98047.75;5103120;28;19923;-62
2022/07/04 00:19:48;;;;;;;;;;;;;;;21.83;nan;98055.22;5109940;27;19958;-62
2022/07/04 00:22:16;;;;;;;;;;;;;;;21.89;nan;98056.47;5107096;27;20322;-62
2022/07/04 00:24:44;;;;;;;;;;;;;;;21.90;nan;98049.75;5100020;27;19920;-61
2022/07/04 00:27:12;;;;;;;;;;;;;;;21.94;nan;98058.88;5101770;27;19926;-61
2022/07/04 00:29:41;;;;;;;;;;;;;;;21.80;nan;98053.22;5099831;27;19959;-59
2022/07/04 00:32:13;;;;;;;;;;;;;;;21.62;nan;98052.25;5106937;27;19934;-62
2022/07/04 00:34:41;;;;;;;;;;;;;;;21.85;nan;98052.09;5108508;27;19924;-62
2022/07/04 00:37:09;;;;;;;;;;;;;;;21.81;nan;98054.81;5110968;27;19976;-59
2022/07/04 00:39:37;;;;;;;;;;;;;;;21.80;nan;98058.75;5103515;27;19938;-61
2022/07/04 00:42:08;;;;;;;;;;;;;;;21.74;nan;98059.50;5102964;28;20402;-61
2022/07/04 00:44:36;;;;;;;;;;;;;;;21.57;nan;98055.38;5103131;27;19920;-59
2022/07/04 00:47:05;;;;;;;;;;;;;;;21.44;nan;98061.19;5110379;27;20385;-62
2022/07/04 00:49:34;;;;;;;;;;;;;;;21.33;nan;98052.00;5107674;27;19946;-60
2022/07/04 00:52:03;;;;;;;;;;;;;;;21.33;nan;98045.66;5109502;27;19986;-59
2022/07/04 00:54:32;;;;;;;;;;;;;;;21.39;nan;98046.91;5106566;27;20058;-62
2022/07/04 00:57:25;;;;;;;;;;;;;;;21.52;nan;98042.72;5114546;27;19996;-62
2022/07/04 00:59:53;;;;;;;;;;;;;;;21.40;nan;98041.00;5108414;27;20022;-54
2022/07/04 01:02:21;;;;;;;;;;;;;;;21.35;nan;98044.09;5102174;28;19920;-62
2022/07/04 01:04:50;;;;;;;;;;;;;;;21.31;nan;98037.75;5108010;28;19919;-62
2022/07/04 01:07:20;;;;;;;;;;;;;;;21.36;nan;98037.44;5103491;27;19969;-62
2022/07/04 01:09:49;;;;;;;;;;;;;;;21.26;nan;98035.31;5098064;27;20006;-61
2022/07/04 01:12:25;;;;;;;;;;;;;;;21.18;nan;98034.44;5108181;27;19919;-61
2022/07/04 01:14:53;;;;;;;;;;;;;;;21.18;nan;98034.44;5101509;28;19924;-53
2022/07/04 01:17:21;;;;;;;;;;;;;;;20.97;nan;98033.41;5103075;28;19964;-62
2022/07/04 01:19:50;;;;;;;;;;;;;;;20.95;nan;98046.81;5104300;28;20364;-64
2022/07/04 01:22:21;;;;;;;;;;;;;;;20.88;nan;98042.78;5107110;28;19962;-60
2022/07/04 01:24:49;;;;;;;;;;;;;;;21.01;nan;98040.56;5082681;27;19938;-61
2022/07/04 01:27:17;;;;;;;;;;;;;;;20.93;nan;98041.63;5115132;27;19919;-62
2022/07/04 01:29:46;;;;;;;;;;;;;;;20.94;nan;98046.00;5102375;27;19920;-62
2022/07/04 01:32:14;;;;;;;;;;;;;;;20.93;nan;98036.94;5116058;27;20318;-62
2022/07/04 01:34:42;;;;;;;;;;;;;;;20.94;nan;98040.47;5100464;28;19920;-62
2022/07/04 01:37:11;;;;;;;;;;;;;;;20.88;nan;98039.22;5104480;28;20352;-62
2022/07/04 01:40:05;;;;;;;;;;;;;;;20.81;nan;98042.69;5106358;28;19919;-62
2022/07/04 01:42:34;;;;;;;;;;;;;;;20.76;nan;98036.69;5104664;28;20020;-61
2022/07/04 01:45:03;;;;;;;;;;;;;;;20.69;nan;98042.94;5099467;28;20284;-61
2022/07/04 01:47:34;;;;;;;;;;;;;;;20.71;nan;98043.34;5105154;27;19932;-62
2022/07/04 01:50:02;;;;;;;;;;;;;;;20.96;nan;98040.09;5106910;27;20032;-62
2022/07/04 01:52:30;;;;;;;;;;;;;;;20.89;nan;98027.81;5108551;27;19923;-62
2022/07/04 01:54:57;;;;;;;;;;;;;;;20.81;nan;98031.63;5102693;28;20441;-62
2022/07/04 01:57:30;;;;;;;;;;;;;;;20.65;nan;98025.53;5111250;27;19927;-62
2022/07/04 02:03:10;;;;;;;;;;;;;;;20.35;nan;98036.53;5097092;27;19920;-62
2022/07/04 02:05:38;;;;;;;;;;;;;;;20.40;nan;98039.75;5099516;28;20641;-62
2022/07/04 02:08:06;;;;;;;;;;;;;;;20.39;nan;98032.63;5081351;28;19951;-61
2022/07/04 02:10:34;;;;;;;;;;;;;;;20.45;nan;98035.06;5107007;27;19920;-61
2022/07/04 02:13:03;;;;;;;;;;;;;;;20.48;nan;98045.41;5117967;27;19920;-59
2022/07/04 02:15:35;;;;;;;;;;;;;;;20.38;nan;98039.31;5104813;27;20022;-59
2022/07/04 02:18:15;;;;;;;;;;;;;;;20.45;nan;98040.59;5108102;27;20002;-60
2022/07/04 02:20:44;;;;;;;;;;;;;;;20.56;nan;98030.50;5105086;27;19980;-61
2022/07/04 02:23:13;;;;;;;;;;;;;;;20.44;nan;98039.00;5101194;28;20554;-60
2022/07/04 02:25:51;;;;;;;;;;;;;;;20.42;nan;98039.38;5112198;27;19919;-61
2022/07/04 02:28:21;;;;;;;;;;;;;;;20.25;nan;98049.00;5103143;27;19967;-61
2022/07/04 02:30:49;;;;;;;;;;;;;;;20.51;nan;98039.16;5110393;27;19920;-59
2022/07/04 02:33:18;;;;;;;;;;;;;;;20.38;nan;98041.28;5105884;27;19919;-62
2022/07/04 02:35:46;;;;;;;;;;;;;;;20.24;nan;98046.59;5122226;27;19923;-61
2022/07/04 02:38:14;;;;;;;;;;;;;;;20.19;nan;98049.66;5103724;28;19991;-59
2022/07/04 02:40:42;;;;;;;;;;;;;;;20.26;nan;98058.06;5103684;28;20234;-61
2022/07/04 02:43:10;;;;;;;;;;;;;;;20.16;nan;98059.50;5103568;28;19920;-62
2022/07/04 02:45:39;;;;;;;;;;;;;;;20.01;nan;98060.44;5108704;28;20282;-62
2022/07/04 02:48:08;;;;;;;;;;;;;;;20.12;nan;98072.44;5099055;28;19920;-60
2022/07/04 02:50:36;;;;;;;;;;;;;;;20.03;nan;98064.44;5100930;28;19924;-61
2022/07/04 02:53:04;;;;;;;;;;;;;;;19.94;nan;98074.91;5103299;28;19920;-62
2022/07/04 02:55:32;;;;;;;;;;;;;;;19.88;nan;98079.16;5101055;28;19932;-61
2022/07/04 02:58:00;;;;;;;;;;;;;;;19.96;nan;98085.56;5117516;28;19987;-61
2022/07/04 03:00:28;;;;;;;;;;;;;;;19.99;nan;98084.84;5109804;28;19919;-61
2022/07/04 03:02:57;;;;;;;;;;;;;;;19.92;nan;98080.00;5100280;28;19950;-61
2022/07/04 03:05:25;;;;;;;;;;;;;;;19.91;nan;98088.63;5103255;28;19962;-60
2022/07/04 03:07:53;;;;;;;;;;;;;;;19.85;nan;98099.97;5105027;28;20039;-56
2022/07/04 03:10:21;;;;;;;;;;;;;;;19.89;nan;98097.28;5100825;28;20005;-62
2022/07/04 03:13:15;;;;;;;;;;;;;;;19.82;nan;98097.16;5105575;28;19924;-61
2022/07/04 03:15:49;;;;;;;;;;;;;;;19.87;nan;98100.41;5103245;28;20249;-62
2022/07/04 03:18:19;;;;;;;;;;;;;;;19.82;nan;98106.22;5095962;28;20309;-61
2022/07/04 03:20:47;;;;;;;;;;;;;;;19.80;nan;98111.31;5099119;28;19932;-61
2022/07/04 03:23:15;;;;;;;;;;;;;;;19.82;nan;98114.50;5096637;28;20065;-61
2022/07/04 03:25:43;;;;;;;;;;;;;;;19.82;nan;98113.72;5101728;28;20010;-61
2022/07/04 03:28:11;;;;;;;;;;;;;;;19.86;nan;98115.34;5094117;28;20387;-61
2022/07/04 03:30:40;;;;;;;;;;;;;;;19.85;nan;98111.00;5113204;28;19931;-60
2022/07/04 03:33:08;;;;;;;;;;;;;;;19.81;nan;98110.13;5107655;28;19924;-61
2022/07/04 03:35:38;;;;;;;;;;;;;;;19.77;nan;98114.00;5111547;28;20008;-59
2022/07/04 03:38:07;;;;;;;;;;;;;;;19.79;nan;98115.22;5110040;28;19956;-58
2022/07/04 03:40:35;;;;;;;;;;;;;;;19.75;nan;98114.34;5108431;28;20018;-58
2022/07/04 03:43:05;;;;;;;;;;;;;;;19.68;nan;98125.28;5107816;28;19932;-59
2022/07/04 03:45:33;;;;;;;;;;;;;;;19.62;nan;98126.75;5103321;28;20378;-61
2022/07/04 03:48:02;;;;;;;;;;;;;;;19.65;nan;98131.50;5099257;28;20033;-60
2022/07/04 03:50:30;;;;;;;;;;;;;;;19.62;nan;98133.03;5100618;28;19920;-61
2022/07/04 03:53:00;;;;;;;;;;;;;;;19.63;nan;98125.56;5082478;28;19920;-61
2022/07/04 03:55:27;;;;;;;;;;;;;;;19.61;nan;98131.44;5093770;28;19924;-61
2022/07/04 03:57:56;;;;;;;;;;;;;;;19.56;nan;98131.72;5104414;28;19936;-55
2022/07/04 04:00:24;;;;;;;;;;;;;;;19.51;nan;98136.72;5098794;28;19927;-59
2022/07/04 04:02:58;;;;;;;;;;;;;;;19.52;nan;98141.88;5100881;28;19920;-61
2022/07/04 04:05:30;;;;;;;;;;;;;;;19.44;nan;98153.09;5102461;28;20031;-61
2022/07/04 04:08:00;;;;;;;;;;;;;;;19.38;nan;98161.66;5105515;28;19920;-61
2022/07/04 04:10:30;;;;;;;;;;;;;;;19.38;nan;98156.16;5105964;27;19993;-61
2022/07/04 04:13:03;;;;;;;;;;;;;;;19.42;nan;98156.22;5087446;27;19972;-57
2022/07/04 04:15:31;;;;;;;;;;;;;;;19.40;nan;98157.78;5106156;28;20210;-61
2022/07/04 04:17:59;;;;;;;;;;;;;;;19.44;nan;98158.63;5108544;27;19999;-61
2022/07/04 04:20:27;;;;;;;;;;;;;;;19.37;nan;98165.59;5108986;27;20320;-58
2022/07/04 04:22:54;;;;;;;;;;;;;;;19.43;nan;98168.06;5104581;28;19923;-60
2022/07/04 04:25:24;;;;;;;;;;;;;;;19.42;nan;98163.72;5099518;28;19920;-51
2022/07/04 04:27:53;;;;;;;;;;;;;;;19.41;nan;98167.63;5089245;27;20427;-53
2022/07/04 04:30:20;;;;;;;;;;;;;;;19.44;nan;98166.88;5103154;28;19999;-61
2022/07/04 04:32:48;;;;;;;;;;;;;;;19.50;nan;98169.00;5103721;28;19919;-61
2022/07/04 04:35:42;;;;;;;;;;;;;;;19.42;nan;98171.97;5104468;27;19924;-61
2022/07/04 04:38:10;;;;;;;;;;;;;;;19.29;nan;98174.88;5104682;28;20248;-61
2022/07/04 04:40:39;;;;;;;;;;;;;;;19.37;nan;98181.31;5103736;27;20006;-61
2022/07/04 04:43:07;;;;;;;;;;;;;;;19.37;nan;98184.06;5107237;27;19924;-62
2022/07/04 04:45:35;;;;;;;;;;;;;;;19.45;nan;98194.09;5105051;28;19939;-61
2022/07/04 04:48:04;;;;;;;;;;;;;;;19.38;nan;98186.47;5098041;28;19926;-58
2022/07/04 04:50:32;;;;;;;;;;;;;;;19.49;nan;98186.69;5104939;28;19975;-62
2022/07/04 04:52:59;;;;;;;;;;;;;;;19.55;nan;98189.97;5099256;28;20011;-61
2022/07/04 04:55:27;;;;;;;;;;;;;;;19.40;nan;98188.09;5097143;28;20076;-61
2022/07/04 04:57:56;;;;;;;;;;;;;;;19.30;nan;98198.50;5103792;27;20363;-61
2022/07/04 05:00:25;;;;;;;;;;;;;;;19.31;nan;98200.09;5094287;28;19931;-60
2022/07/04 05:02:57;;;;;;;;;;;;;;;19.29;nan;98202.44;5098018;27;19968;-54
2022/07/04 05:05:26;;;;;;;;;;;;;;;19.26;nan;98197.63;5102379;28;19923;-61
2022/07/04 05:07:55;;;;;;;;;;;;;;;19.26;nan;98197.63;5101915;28;20030;-60
2022/07/04 05:10:24;;;;;;;;;;;;;;;19.27;nan;98198.44;5101316;28;20433;-60
2022/07/04 05:13:17;;;;;;;;;;;;;;;19.27;nan;98207.47;5103786;27;20409;-62
2022/07/04 05:15:46;;;;;;;;;;;;;;;19.23;nan;98209.38;5105416;28;19992;-60
2022/07/04 05:18:15;;;;;;;;;;;;;;;19.28;nan;98209.09;5100698;28;19989;-62
2022/07/04 05:20:43;;;;;;;;;;;;;;;19.31;nan;98204.81;5074425;28;19940;-62
2022/07/04 05:23:11;;;;;;;;;;;;;;;19.29;nan;98207.94;5100114;27;19919;-59
2022/07/04 05:25:39;;;;;;;;;;;;;;;19.43;nan;98214.88;5096257;28;19928;-62
2022/07/04 05:28:07;;;;;;;;;;;;;;;19.35;nan;98205.69;5108172;27;19960;-60
2022/07/04 05:30:35;;;;;;;;;;;;;;;19.45;nan;98215.34;5103037;28;19926;-59
2022/07/04 05:33:09;;;;;;;;;;;;;;;19.40;nan;98208.16;5102011;28;20023;-62
2022/07/04 05:35:40;;;;;;;;;;;;;;;19.36;nan;98205.31;5095706;28;19944;-61
2022/07/04 05:38:08;;;;;;;;;;;;;;;19.39;nan;98203.81;5097960;28;19963;-61
2022/07/04 05:40:36;;;;;;;;;;;;;;;19.51;nan;98211.94;5098267;28;20269;-63
2022/07/04 05:43:04;;;;;;;;;;;;;;;19.47;nan;98216.56;5105013;27;19919;-61
2022/07/04 05:45:31;;;;;;;;;;;;;;;19.42;nan;98222.38;5100527;28;19986;-62
2022/07/04 05:48:00;;;;;;;;;;;;;;;19.40;nan;98223.91;5099295;28;19935;-62
2022/07/04 05:50:29;;;;;;;;;;;;;;;19.43;nan;98223.16;5092732;28;19931;-61
2022/07/04 05:53:00;;;;;;;;;;;;;;;19.33;nan;98217.09;5093326;28;19920;-62
2022/07/04 05:55:28;;;;;;;;;;;;;;;19.37;nan;98220.69;5105820;28;20361;-60
2022/07/04 05:57:56;;;;;;;;;;;;;;;19.43;nan;98217.66;5106655;28;19988;-62
2022/07/04 06:00:25;;;;;;;;;;;;;;;19.54;nan;98221.41;5093351;28;20027;-63
2022/07/04 06:02:53;;;;;;;;;;;;;;;19.51;nan;98224.91;5098408;28;19923;-57
2022/07/04 06:05:21;;;;;;;;;;;;;;;19.50;nan;98228.84;5093054;28;19931;-62
2022/07/04 06:07:51;;;;;;;;;;;;;;;19.52;nan;98243.84;5099792;28;19965;-62
2022/07/04 06:10:22;;;;;;;;;;;;;;;19.56;nan;98239.19;5088540;27;20444;-62
2022/07/04 06:12:49;;;;;;;;;;;;;;;19.58;nan;98231.34;5097439;28;19930;-61
2022/07/04 06:15:18;;;;;;;;;;;;;;;19.69;nan;98236.31;5103384;28;20331;-62
2022/07/04 06:18:04;;;;;;;;;;;;;;;19.65;nan;98227.97;5078617;28;20307;-59
2022/07/04 06:20:32;;;;;;;;;;;;;;;19.73;nan;98232.47;5096661;28;19951;-60
2022/07/04 06:26:12;;;;;;;;;;;;;;;20.03;nan;98227.16;5096178;28;20242;-62
2022/07/04 06:28:40;;;;;;;;;;;;;;;20.10;nan;98234.75;5111450;27;19923;-62
2022/07/04 06:31:13;;;;;;;;;;;;;;;20.00;nan;98222.34;5103187;28;19939;-62
2022/07/04 06:36:23;;;;;;;;;;;;;;;19.96;nan;98224.25;5088090;28;19924;-61
2022/07/04 06:38:56;;;;;;;;;;;;;;;20.11;nan;98234.38;5091989;27;19926;-61
2022/07/04 06:41:49;;;;;;;;;;;;;;;19.93;nan;98224.19;5098535;28;19931;-59
2022/07/04 06:44:17;;;;;;;;;;;;;;;20.10;nan;98229.22;5096740;28;20366;-64
2022/07/04 06:46:45;;;;;;;;;;;;;;;20.22;nan;98237.31;5096777;28;19927;-61
2022/07/04 06:49:14;;;;;;;;;;;;;;;20.41;nan;98233.72;5097613;28;19965;-59
2022/07/04 06:51:42;;;;;;;;;;;;;;;20.30;nan;98230.78;5096787;27;19966;-60
2022/07/04 06:54:12;;;;;;;;;;;;;;;20.31;nan;98234.34;5107332;28;19927;-60
2022/07/04 06:56:39;;;;;;;;;;;;;;;20.30;nan;98228.03;5096354;28;20307;-60
2022/07/04 06:59:07;;;;;;;;;;;;;;;20.47;nan;98232.28;5098863;28;20013;-61
2022/07/04 07:01:36;;;;;;;;;;;;;;;20.42;nan;98224.28;5102940;28;20314;-61
2022/07/04 07:04:29;;;;;;;;;;;;;;;20.49;nan;98229.94;5101218;28;20037;-62
2022/07/04 07:06:58;;;;;;;;;;;;;;;20.60;nan;98230.09;5097221;28;19965;-60
2022/07/04 07:09:28;;;;;;;;;;;;;;;20.77;nan;98226.81;5100908;28;19931;-62
2022/07/04 07:11:56;;;;;;;;;;;;;;;20.85;nan;98227.75;5104989;28;19965;-61
2022/07/04 07:14:24;;;;;;;;;;;;;;;20.94;nan;98222.75;5099650;28;19978;-59
2022/07/04 07:17:17;;;;;;;;;;;;;;;20.93;nan;98226.66;5102325;28;20339;-52
2022/07/04 07:20:09;;;;;;;;;;;;;;;20.93;nan;98232.19;5104235;28;20205;-62
2022/07/04 07:22:38;;;;;;;;;;;;;;;21.08;nan;98228.47;5100146;28;19932;-60
2022/07/04 07:25:11;;;;;;;;;;;;;;;21.27;nan;98229.53;5102769;28;19951;-57
2022/07/04 07:27:40;;;;;;;;;;;;;;;21.30;nan;98228.78;5080794;28;19965;-58
2022/07/04 07:30:09;;;;;;;;;;;;;;;21.28;nan;98231.91;5102876;28;20419;-61
2022/07/04 07:32:37;;;;;;;;;;;;;;;21.15;nan;98217.53;5100101;28;19920;-56
2022/07/04 07:35:06;;;;;;;;;;;;;;;21.14;nan;98226.19;5101974;28;19928;-61
2022/07/04 07:37:34;;;;;;;;;;;;;;;21.18;nan;98221.50;5080853;28;19920;-62
2022/07/04 07:40:06;;;;;;;;;;;;;;;21.24;nan;98225.53;5102911;28;19972;-62
2022/07/04 07:42:35;;;;;;;;;;;;;;;21.24;nan;98224.75;5104856;28;20023;-61
2022/07/04 07:45:07;;;;;;;;;;;;;;;21.29;nan;98222.44;5106062;27;19927;-60
2022/07/04 07:47:35;;;;;;;;;;;;;;;21.43;nan;98230.97;5100073;28;20030;-59
2022/07/04 07:50:09;;;;;;;;;;;;;;;21.28;nan;98226.38;5109881;27;20010;-62
2022/07/04 07:52:37;;;;;;;;;;;;;;;21.26;nan;98234.28;5100759;28;20421;-61
2022/07/04 07:55:06;;;;;;;;;;;;;;;21.19;nan;98218.38;5107961;27;19920;-60
2022/07/04 07:57:35;;;;;;;;;;;;;;;21.04;nan;98222.13;5088886;28;20056;-62
2022/07/04 08:00:05;;;;;;;;;;;;;;;21.22;nan;98224.31;5103249;27;20011;-61
2022/07/04 08:05:25;;;;;;;;;;;;;;;21.34;nan;98224.91;5102313;28;20011;-62
2022/07/04 08:07:53;;;;;;;;;;;;;;;21.42;nan;98232.16;5104718;27;19931;-54
2022/07/04 08:10:21;;;;;;;;;;;;;;;21.65;nan;98228.47;5103652;28;20049;-62
2022/07/04 08:12:51;;;;;;;;;;;;;;;21.67;nan;98220.56;5108090;28;20321;-60
2022/07/04 08:15:19;;;;;;;;;;;;;;;21.69;nan;98221.81;5086599;28;20022;-59
2022/07/04 08:17:47;;;;;;;;;;;;;;;21.78;nan;98224.25;5105984;27;20307;-62
2022/07/04 08:20:15;;;;;;;;;;;;;;;21.78;nan;98223.47;5107869;28;19919;-62
2022/07/04 08:22:43;;;;;;;;;;;;;;;21.86;nan;98214.88;5087320;28;19941;-62
2022/07/04 08:25:14;;;;;;;;;;;;;;;21.86;nan;98217.66;5106663;28;20287;-62
2022/07/04 08:27:42;;;;;;;;;;;;;;;21.91;nan;98217.31;5106272;27;19926;-63
2022/07/04 08:30:12;;;;;;;;;;;;;;;21.98;nan;98213.81;5108491;28;19989;-60
2022/07/04 08:32:40;;;;;;;;;;;;;;;22.18;nan;98211.69;5106937;28;19924;-61
2022/07/04 08:35:09;;;;;;;;;;;;;;;22.26;nan;98213.31;5086695;28;19961;-60
2022/07/04 08:37:37;;;;;;;;;;;;;;;22.35;nan;98210.25;5102303;28;19919;-53
2022/07/04 08:40:30;;;;;;;;;;;;;;;22.35;nan;98219.34;5101897;28;20084;-62
2022/07/04 08:42:58;;;;;;;;;;;;;;;22.36;nan;98212.63;5086742;28;19923;-61
2022/07/04 08:45:28;;;;;;;;;;;;;;;22.37;nan;98207.88;5103380;28;19920;-60
2022/07/04 08:47:58;;;;;;;;;;;;;;;22.41;nan;98212.28;5097768;28;19938;-62
2022/07/04 08:50:27;;;;;;;;;;;;;;;22.44;nan;98216.25;5102881;27;19926;-62
2022/07/04 08:52:57;;;;;;;;;;;;;;;22.54;nan;98217.53;5096005;28;19924;-60
2022/07/04 08:58:33;;;;;;;;;;;;;;;22.77;nan;98209.78;5079263;28;19966;-61
2022/07/04 09:01:08;;;;;;;;;;;;;;;22.68;nan;98206.56;5101181;27;19932;-56
2022/07/04 09:03:36;;;;;;;;;;;;;;;22.59;nan;98197.81;5101049;28;19963;-61
2022/07/04 09:06:07;;;;;;;;;;;;;;;22.69;nan;98202.59;5104519;28;19926;-61
2022/07/04 09:08:36;;;;;;;;;;;;;;;22.81;nan;98207.84;5105943;28;19978;-61
2022/07/04 09:11:08;;;;;;;;;;;;;;;22.80;nan;98197.97;5102917;28;19973;-60
2022/07/04 09:13:36;;;;;;;;;;;;;;;22.79;nan;98199.13;5103079;28;19927;-62
2022/07/04 09:16:10;;;;;;;;;;;;;;;22.84;nan;98192.41;5103552;27;19969;-56
2022/07/04 09:18:42;;;;;;;;;;;;;;;22.79;nan;98201.88;5102534;28;19996;-57
2022/07/04 09:21:10;;;;;;;;;;;;;;;22.97;nan;98197.31;5092526;28;19920;-61
2022/07/04 09:23:39;;;;;;;;;;;;;;;22.96;nan;98201.25;5101613;28;19927;-60
2022/07/04 09:26:09;;;;;;;;;;;;;;;22.95;nan;98204.41;5100664;28;19920;-59
2022/07/04 09:28:37;;;;;;;;;;;;;;;22.95;nan;98215.47;5105506;28;19955;-61
2022/07/04 09:31:18;;;;;;;;;;;;;;;23.06;nan;98215.53;5099548;28;19977;-58
2022/07/04 09:33:57;;;;;;;;;;;;;;;23.15;nan;98219.56;5102673;28;19936;-60
2022/07/04 09:36:25;;;;;;;;;;;;;;;23.20;nan;98221.97;5093858;28;19924;-61
2022/07/04 09:39:12;;;;;;;;;;;;;;;23.30;nan;98222.41;5105746;28;19924;-57
2022/07/04 09:41:56;;;;;;;;;;;;;;;23.15;nan;98218.78;5105149;27;19919;-61
2022/07/04 09:44:25;;;;;;;;;;;;;;;23.22;nan;98216.03;5097487;28;19927;-60
2022/07/04 09:46:54;;;;;;;;;;;;;;;23.08;nan;98215.97;5093920;27;19920;-55
2022/07/04 09:49:23;;;;;;;;;;;;;;;23.25;nan;98218.03;5096121;28;19927;-50
2022/07/04 09:51:51;;;;;;;;;;;;;;;23.40;nan;98216.13;5076781;28;19986;-60
2022/07/04 09:54:21;;;;;;;;;;;;;;;23.47;nan;98218.94;5105287;27;19920;-60
2022/07/04 09:56:50;;;;;;;;;;;;;;;23.42;nan;98217.31;5103629;28;19940;-61
2022/07/04 09:59:18;;;;;;;;;;;;;;;23.45;nan;98221.31;5099035;28;19920;-60
2022/07/04 10:01:45;;;;;;;;;;;;;;;23.34;nan;98226.81;5090335;28;19920;-61
2022/07/04 10:04:16;;;;;;;;;;;;;;;23.21;nan;98231.88;5094512;28;20044;-53
2022/07/04 10:06:45;;;;;;;;;;;;;;;23.19;nan;98236.22;5097717;27;20015;-61
2022/07/04 10:09:14;;;;;;;;;;;;;;;23.21;nan;98231.06;5098354;28;19928;-61
2022/07/04 10:11:43;;;;;;;;;;;;;;;23.23;nan;98234.28;5103763;28;19964;-60
2022/07/04 10:14:11;;;;;;;;;;;;;;;23.42;nan;98227.63;5100378;28;19953;-50
2022/07/04 10:17:04;;;;;;;;;;;;;;;23.36;nan;98218.09;5101048;28;19973;-61
2022/07/04 10:19:35;;;;;;;;;;;;;;;23.55;nan;98228.09;5098597;28;19928;-62
2022/07/04 10:25:20;;;;;;;;;;;;;;;23.68;nan;98232.13;5101471;27;19928;-60
2022/07/04 10:27:50;;;;;;;;;;;;;;;23.48;nan;98221.31;5103269;27;19985;-51
2022/07/04 10:34:01;;;;;;;;;;;;;;;23.86;nan;98224.66;5091561;28;19939;-61
2022/07/04 10:36:31;;;;;;;;;;;;;;;23.91;nan;98231.81;5097278;28;19920;-61
2022/07/04 10:39:24;;;;;;;;;;;;;;;23.87;nan;98231.81;5088924;28;20348;-60
2022/07/04 10:41:59;;;;;;;;;;;;;;;23.87;nan;98231.81;5091167;28;19920;-52
2022/07/04 10:44:35;;;;;;;;;;;;;;;23.92;nan;98234.19;5090090;28;19943;-59
2022/07/04 10:47:03;;;;;;;;;;;;;;;23.85;nan;98236.94;5092092;28;20318;-59
2022/07/04 10:49:31;;;;;;;;;;;;;;;23.89;nan;98231.41;5091484;28;19977;-59
2022/07/04 10:52:24;;;;;;;;;;;;;;;23.78;nan;98229.41;5096963;28;19928;-61
2022/07/04 10:54:53;;;;;;;;;;;;;;;23.80;nan;98240.09;5095940;28;19920;-59
2022/07/04 10:57:21;;;;;;;;;;;;;;;23.93;nan;98232.22;5101955;28;20290;-61
2022/07/04 11:00:04;;;;;;;;;;;;;;;23.92;nan;98241.75;5091686;28;19943;-61
2022/07/04 11:02:32;;;;;;;;;;;;;;;24.04;nan;98235.81;5089890;28;19927;-61
2022/07/04 11:05:01;;;;;;;;;;;;;;;23.96;nan;98237.75;5086037;28;20276;-57
2022/07/04 11:07:48;;;;;;;;;;;;;;;23.93;nan;98244.13;5091752;28;19966;-61
2022/07/04 11:10:25;;;;;;;;;;;;;;;24.08;nan;98235.84;5090665;28;19932;-59
2022/07/04 11:13:23;;;;;;;;;;;;;;;24.19;nan;98236.66;5091828;28;20015;-53
2022/07/04 11:15:58;;;;;;;;;;;;;;;24.44;nan;98245.81;5092457;28;19920;-58
2022/07/04 11:18:26;;;;;;;;;;;;;;;24.42;nan;98252.97;5098368;28;19919;-59
2022/07/04 11:20:54;;;;;;;;;;;;;;;24.35;nan;98239.06;5096220;28;19924;-58
2022/07/04 11:23:24;;;;;;;;;;;;;;;24.36;nan;98230.34;5092244;28;19931;-59
2022/07/04 11:25:56;;;;;;;;;;;;;;;24.41;nan;98229.16;5083724;28;19920;-51
2022/07/04 11:28:35;;;;;;;;;;;;;;;24.33;nan;98230.31;5078316;28;19959;-58
2022/07/04 11:31:12;;;;;;;;;;;;;;;24.31;nan;98223.16;5078612;28;20357;-58
2022/07/04 11:33:41;;;;;;;;;;;;;;;24.40;nan;98222.03;5106945;28;19927;-60
2022/07/04 11:36:10;;;;;;;;;;;;;;;24.27;nan;98213.25;5095841;28;19926;-59
2022/07/04 11:38:46;;;;;;;;;;;;;;;24.23;nan;98212.44;5095469;28;20005;-59
2022/07/04 11:46:54;;;;;;;;;;;;;;;24.17;nan;98211.25;5084038;28;19951;-59
2022/07/04 11:49:24;;;;;;;;;;;;;;;24.24;nan;98208.50;5098453;28;19959;-60
2022/07/04 11:51:55;;;;;;;;;;;;;;;24.34;nan;98198.56;5092752;28;21098;-59
2022/07/04 11:54:23;;;;;;;;;;;;;;;24.33;nan;98205.31;5096821;28;19928;-55
2022/07/04 11:57:14;;;;;;;;;;;;;;;24.39;nan;98196.22;5100296;28;19920;-60
2022/07/04 11:59:42;;;;;;;;;;;;;;;24.40;nan;98197.03;5097506;28;20321;-59
2022/07/04 12:02:16;;;;;;;;;;;;;;;24.32;nan;98196.19;5091133;28;20236;-59
2022/07/04 12:04:45;;;;;;;;;;;;;;;24.34;nan;98185.47;5093189;28;20350;-59
2022/07/04 12:07:13;;;;;;;;;;;;;;;24.51;nan;98184.72;5076311;28;20402;-58
2022/07/04 12:09:42;;;;;;;;;;;;;;;24.38;nan;98180.75;5094176;28;20031;-59
2022/07/04 12:12:10;;;;;;;;;;;;;;;24.41;nan;98176.41;5091458;28;19931;-60
2022/07/04 12:14:39;;;;;;;;;;;;;;;24.45;nan;98182.72;5097459;28;19920;-59
2022/07/04 12:17:18;;;;;;;;;;;;;;;24.42;nan;98178.78;5098069;28;19931;-60
2022/07/04 12:19:54;;;;;;;;;;;;;;;24.75;nan;98179.53;5089637;28;20320;-60
2022/07/04 12:22:30;;;;;;;;;;;;;;;24.76;nan;98175.56;5089672;28;19971;-54
2022/07/04 12:24:58;;;;;;;;;;;;;;;24.61;nan;98171.22;5091297;28;19940;-60
2022/07/04 12:27:26;;;;;;;;;;;;;;;24.85;nan;98170.41;5096139;28;19919;-61
2022/07/04 12:29:55;;;;;;;;;;;;;;;24.68;nan;98165.66;5096075;28;20290;-59
2022/07/04 12:32:23;;;;;;;;;;;;;;;24.65;nan;98163.69;5095062;28;20321;-57
2022/07/04 12:34:51;;;;;;;;;;;;;;;24.60;nan;98159.31;5087522;28;19927;-59
2022/07/04 12:37:19;;;;;;;;;;;;;;;24.48;nan;98159.72;5078714;28;19920;-54
2022/07/04 12:39:48;;;;;;;;;;;;;;;24.36;nan;98157.34;5099041;28;19924;-59
2022/07/04 12:42:17;;;;;;;;;;;;;;;24.26;nan;98159.69;5091349;28;19924;-58
2022/07/04 12:44:49;;;;;;;;;;;;;;;24.26;nan;98150.59;5099797;28;19927;-54
2022/07/04 12:47:18;;;;;;;;;;;;;;;24.33;nan;98141.44;5089297;28;19959;-59
2022/07/04 12:50:04;;;;;;;;;;;;;;;24.31;nan;98139.09;5090532;28;19953;-59
2022/07/04 12:52:32;;;;;;;;;;;;;;;24.41;nan;98131.97;5088965;28;20025;-59
2022/07/04 12:55:04;;;;;;;;;;;;;;;24.36;nan;98133.16;5089294;28;19961;-57
2022/07/04 12:57:31;;;;;;;;;;;;;;;24.35;nan;98123.25;5091359;28;20027;-57
2022/07/04 13:00:00;;;;;;;;;;;;;;;24.63;nan;98122.41;5091876;28;19949;-60
2022/07/04 13:02:49;;;;;;;;;;;;;;;24.65;nan;98120.03;5101356;28;20371;-59
2022/07/04 13:05:18;;;;;;;;;;;;;;;24.66;nan;98118.03;5072282;28;20020;-59
2022/07/04 13:07:47;;;;;;;;;;;;;;;24.67;nan;98111.31;5093742;28;20360;-58
2022/07/04 13:10:15;;;;;;;;;;;;;;;24.74;nan;98106.50;5090789;28;19973;-59
2022/07/04 13:12:43;;;;;;;;;;;;;;;25.00;nan;98102.47;5090409;28;20334;-57
2022/07/04 13:15:12;;;;;;;;;;;;;;;25.07;nan;98104.44;5093117;28;19996;-54
2022/07/04 13:17:40;;;;;;;;;;;;;;;25.25;nan;98099.63;5097207;28;20455;-58
2022/07/04 13:20:12;;;;;;;;;;;;;;;25.51;nan;98097.47;5101142;28;20343;-61
2022/07/04 13:22:40;;;;;;;;;;;;;;;25.36;nan;98091.22;5095956;28;19985;-57
2022/07/04 13:25:08;;;;;;;;;;;;;;;25.09;nan;98096.53;5093281;28;20374;-57
2022/07/04 13:27:36;;;;;;;;;;;;;;;24.90;nan;98097.75;5091862;28;19934;-58
2022/07/04 13:30:04;;;;;;;;;;;;;;;24.94;nan;98092.97;5086302;28;19920;-58
2022/07/04 13:32:33;;;;;;;;;;;;;;;25.39;nan;98098.75;5098405;28;19920;-60
2022/07/04 13:35:01;;;;;;;;;;;;;;;25.34;nan;98099.16;5093790;28;20011;-60
2022/07/04 13:37:31;;;;;;;;;;;;;;;25.25;nan;98096.84;5092895;28;20317;-57
2022/07/04 13:40:03;;;;;;;;;;;;;;;25.19;nan;98092.09;5087444;28;19950;-58
2022/07/04 13:45:18;;;;;;;;;;;;;;;25.10;nan;98094.53;5094386;28;19920;-55
2022/07/04 13:47:46;;;;;;;;;;;;;;;25.23;nan;98081.75;5089810;28;19931;-57
2022/07/04 13:50:16;;;;;;;;;;;;;;;25.25;nan;98080.16;5089889;28;20220;-55
2022/07/04 13:52:50;;;;;;;;;;;;;;;25.56;nan;98081.16;5092497;28;19971;-60
2022/07/04 13:55:18;;;;;;;;;;;;;;;25.48;nan;98082.41;5093817;28;19944;-57
2022/07/04 13:57:47;;;;;;;;;;;;;;;25.63;nan;98074.00;5089614;28;19924;-52